Historyczne dane pomiarowe

Dodano dane terminowe – wersja testowa.

Dane z okresu 1951-2019

Wersja bazy: 1.34 [2019-03-16, lista zmian], aktualizacja planowana na 2019-04-15

Dane meteo z obszaru Polski uzyskane na podstawie danych udostępnionych przez Instytut Meteorologii i Gospodarki Wodnej – Państwowy Instytut Badawczy.

 

Wybierz Datę:    

       

TemperaturaWilgotnośćWiatrCiśnienieOpadyŚniegCzas trwania zjawisk
 Stacja t tx tn tng RH VA  wxwx mslp ppp RRR   cm mm wxwxwxwxwxwxwx
1999-08-14 12.6 21.4 4.1 2.8 66.8- 2.7 1.7---- 1.6------------
1999-08-13 13.3 18.2 9.2 7.9 77.3- 4.7 1.0---- 0.0------------
1999-08-12 14.2 17.6 11.4 10.2 79.8- 6.3 1.3---- 0.0------------
1999-08-11 17.0 22.2 14.4 13.4 88.3- 7.0 1.0---- 2.3------------
1999-08-10 17.9 21.2 14.2 12.9 98.0- 7.3 1.3---- 2.8------------
1999-08-09 21.0 25.4 17.8 16.6 78.5- 3.7 1.3---- 3.2------------
1999-08-08 20.0 27.8 12.0 10.8 76.0- 1.7 0.7---- 0.0------------
1999-08-07 18.3 28.6 12.0 10.7 83.3- 4.3 1.0---- 8.4------------
1999-08-06 21.3 27.8 16.2 15.3 70.3- 3.0 1.3---- 0.0------------
1999-08-05 16.6 25.8 6.8 5.6 68.3- 3.7 0.3---- 0.0------------
1999-08-04 15.8 25.0 6.8 5.7 56.0- 1.7 1.0---- 0.0------------
1999-08-03 15.8 24.4 7.1 6.0 64.3- 0.7 1.0---- 0.0------------
1999-08-02 15.5 23.2 7.7 6.5 70.5- 2.0 0.7---- 0.0------------
1999-08-01 17.0 24.6 8.0 6.7 53.5- 1.3 1.3---- 0.0------------
1999-07-31 16.2 24.4 6.7 5.3 69.5- 0.7 2.0---- 0.0------------
1999-07-30 16.1 23.6 6.9 5.5 68.3- 1.0 1.0---- 0.0------------
1999-07-29 16.7 22.8 9.5 8.4 71.8- 3.7 1.0---- 0.0------------
1999-07-28 17.4 22.6 11.6 10.2 56.5- 1.3 2.0---- 0.0------------
1999-07-27 17.7 23.3 14.4 13.3 82.3- 5.0 1.7---- 0.0------------
1999-07-26 17.9 24.8 8.9 7.5 69.0- 0.7 2.3---- 0.0------------
1999-07-25 15.9 24.2 6.1 5.0 71.0- 0.7 1.3---- 0.0------------
1999-07-24 15.4 20.6 11.6 10.4 84.8- 3.7 0.7---- 0.0------------
1999-07-23 14.5 17.5 11.4 10.4 83.3- 6.0 1.7---- 1.7------------
1999-07-22 18.4 22.5 15.8 14.5 53.8- 3.7 0.7---- 0.0------------
1999-07-21 20.4 24.2 14.9 13.7 73.0- 5.0 1.3---- 0.0------------
1999-07-20 19.8 28.6 11.5 10.2 67.8- 2.3 1.0---- 10.4------------
1999-07-19 18.4 27.4 9.8 8.5 66.5- 1.7 0.7---- 0.0------------
1999-07-18 17.3 26.2 8.4 7.3 70.5- 1.0 0.3---- 0.0------------
1999-07-17 16.3 22.4 7.9 6.9 73.3- 1.0 0.7---- 0.0------------
1999-07-16 14.5 17.8 8.9 7.8 77.0- 2.0 1.0---- 0.0------------
1999-07-15 15.2 18.6 12.2 11.0 85.5- 4.7 1.0---- 0.2------------
1999-07-14 18.6 23.3 16.0 15.0 96.8- 7.0 1.3---- 5.9------------
1999-07-13 20.2 24.6 16.2 14.7 82.0- 4.0 2.3---- 1.0------------
1999-07-12 19.7 25.6 15.6 14.3 88.0- 4.0 2.7---- 4.4------------
1999-07-11 19.2 21.7 17.5 15.1 84.8- 5.3 8.7---- 0.8------------
1999-07-10 18.3 21.8 12.5 11.2 88.0- 4.3 8.7---- 0.0------------
1999-07-09 16.0 17.6 13.9 12.4 98.5- 8.0 1.3---- 8.8------------
1999-07-08 14.0 15.7 12.8 11.2 96.0- 8.0 1.3---- 5.3------------
1999-07-07 17.4 22.3 15.2 14.3 90.8- 7.0 1.0---- 12.5------------
1999-07-06 23.9 28.0 21.5 20.2 73.8- 3.0 4.0---- 16.5------------
1999-07-05 24.1 28.6 18.6 17.4 58.0- 1.3 8.3---- 0.0------------
1999-07-04 23.3 29.9 15.5 14.3 50.0- 0.7 3.7---- 0.0------------
1999-07-03 18.1 26.2 9.1 7.6 62.5- 0.3 1.3---- 0.0------------
1999-07-02 18.5 23.7 12.6 11.3 81.5- 2.3 1.0---- 0.0------------
1999-07-01 16.7 22.2 9.5 8.3 91.3- 2.3 1.0---- 0.2------------
1999-06-30 17.8 24.8 10.1 8.5 73.0- 1.3 1.3---- 0.0------------
1999-06-29 17.7 23.2 10.6 8.2 66.0- 1.7 1.3---- 0.0------------
1999-06-28 19.2 24.0 15.6 14.2 76.5- 3.0 1.0---- 0.4------------
1999-06-27 19.3 23.2 16.9 15.4 72.8- 6.3 3.3---- 4.4------------
1999-06-26 16.1 22.6 9.0 7.5 75.5- 2.3 2.0---- 0.0------------
1999-06-25 10.8 17.4 3.9 2.8 74.5- 5.3 2.3---- 16.6------------
1999-06-24 9.7 14.6 3.1 1.8 79.5- 4.3 1.7---- 0.0------------
1999-06-23 12.0 15.8 8.1 6.3 59.3- 4.3 2.0---- 0.0------------
1999-06-22 8.4 10.9 7.1 5.7 93.8- 7.0 1.3---- 21.7------------
1999-06-21 14.2 18.7 10.4 9.3 80.5- 7.7 1.0---- 25.0------------
1999-06-20 17.0 21.6 13.0 12.0 79.0- 3.3 1.3---- 0.0------------
1999-06-19 14.0 17.2 11.0 9.8 92.8- 6.7 1.0---- 0.9------------
1999-06-18 14.6 19.6 11.8 10.9 96.8- 7.7 1.3---- 9.6------------
1999-06-17 17.2 21.2 12.9 11.6 83.0- 5.3 1.7---- 0.0------------
1999-06-16 15.9 18.5 13.7 12.5 93.0- 7.3 2.0---- 0.0------------
351.6 ms

 

Źródłem pochodzenia danych jest Instytut Meteorologii i Gospodarki Wodnej – Państwowy Instytut Badawczy. Dane Instytutu Meteorologii i Gospodarki Wodnej – Państwowego Instytutu Badawczego zostały przetworzone.

Dane źródłowe można odnaleźć na stronie https://dane.imgw.pl